Latest Weather Observations for Delamere

IDD60801

Issued at 9:31 am CST Thursday 5 March 2015 (issued every 30 minutes, with the page automatically refreshed every 10 minutes)

About weather observations | Map of weather stations | Latest weather observations for NT | Other Formats
Station Details ID: 014949 Name: DELAMERE WEAPONS RANGE Lat: -15.74 Lon: 131.92 Height: 221.0 m
Data from the previous 72 hours. | See also: Recent months at Delamere
Date/Time
CST
Temp
°C
App
Temp
°C
Dew
Point
Rel
Hum
%
Delta-T
°C
Wind Press
QNH
hPa
Press
MSL
hPa
Rain
since 9 am
mm
Dir
 
Spd
km/h
Gust
km/h
Spd
kts
Gust
kts
05/09:30am 28.5 32.6 23.9 76 3.2 N 9 11 5 6 1010.5 - 0.0
05/09:00am 27.5 31.6 23.3 78 2.9 N 7 9 4 5 1010.6 1009.0 3.6
05/08:30am 26.7 32.5 24.0 85 1.9 CALM 0 0 0 0 1010.6 - 3.6
05/08:00am 25.5 31.0 24.1 92 1.0 N 2 6 1 3 1010.4 - 3.6
05/07:30am 25.1 29.7 24.2 95 0.6 NW 7 9 4 5 1010.2 - 3.6
05/07:00am 24.5 29.3 24.2 98 0.2 NNE 6 7 3 4 1009.7 - 3.6
05/06:30am 24.5 29.3 24.2 98 0.2 NNE 6 6 3 3 1009.3 - 3.6
05/06:00am 24.5 29.3 24.2 98 0.2 NE 6 7 3 4 1009.0 1007.5 3.6
05/05:30am 24.6 29.2 24.1 97 0.3 E 7 9 4 5 1008.7 - 3.6
05/05:00am 24.9 31.0 24.4 97 0.3 CALM 0 0 0 0 1008.7 - 3.6
05/04:30am 24.8 30.2 24.5 98 0.2 N 4 7 2 4 1008.6 - 3.6
05/04:00am 25.0 31.0 24.3 96 0.5 CALM 0 0 0 0 1008.6 - 3.6
05/03:30am 24.9 30.0 24.6 98 0.2 NE 6 7 3 4 1008.3 - 3.6
05/03:00am 25.0 29.8 24.5 97 0.3 ENE 7 7 4 4 1008.3 1006.8 3.6
05/02:30am 25.0 29.8 24.5 97 0.3 ENE 7 9 4 5 1008.4 - 3.6
05/02:00am 25.2 29.8 24.2 94 0.7 E 7 9 4 5 1008.6 - 3.6
05/01:30am 25.5 31.8 24.8 96 0.5 CALM 0 0 0 0 1009.2 - 3.6
05/01:00am 25.5 30.8 25.0 97 0.4 S 6 7 3 4 1009.5 - 3.6
05/12:30am 25.5 31.7 24.6 95 0.6 CALM 0 0 0 0 1009.9 - 3.6
05/12:00am 25.5 31.6 24.5 94 0.7 CALM 0 0 0 0 1010.1 1008.5 3.6
 
Date/Time
CST
Temp
°C
App
Temp
°C
Dew
Point
Rel
Hum
%
Delta-T
°C
Wind Press
QNH
hPa
Press
MSL
hPa
Rain
since 9 am
mm
Dir
 
Spd
km/h
Gust
km/h
Spd
kts
Gust
kts
04/11:30pm 25.6 31.7 24.4 93 0.8 CALM 0 0 0 0 1010.4 - 3.6
04/11:00pm 25.7 31.8 24.5 93 0.8 CALM 0 0 0 0 1010.5 - 3.6
04/10:30pm 25.9 32.0 24.5 92 1.0 CALM 0 0 0 0 1010.4 - 3.6
04/10:00pm 25.9 30.3 24.5 92 1.0 N 9 11 5 6 1010.5 - 3.6
04/09:30pm 25.7 30.4 25.0 96 0.5 NNE 9 17 5 9 1010.0 - 3.6
04/09:00pm 25.5 28.5 25.3 99 0.1 NNE 19 26 10 14 1010.0 1008.4 3.6
04/08:46pm 25.1 26.9 24.2 95 0.6 NE 22 43 12 23 1010.1 - 3.6
04/08:39pm 26.0 24.4 23.3 85 1.9 E 37 56 20 30 1010.4 - 0.4
04/08:32pm 28.4 25.0 22.4 70 4.1 ENE 44 56 24 30 1009.7 - 0.0
04/08:30pm 30.6 34.7 24.5 70 4.3 ENE 11 26 6 14 1009.5 - 0.0
04/08:00pm 30.6 35.4 24.5 70 4.3 ENE 7 9 4 5 1008.6 - 0.0
04/07:30pm 31.1 35.4 23.7 64 5.2 ENE 7 9 4 5 1007.6 - 0.0
04/07:00pm 31.8 36.3 23.6 62 5.7 NE 6 7 3 4 1007.3 - 0.0
04/06:30pm 32.8 35.8 22.6 55 7.0 NE 11 17 6 9 1007.2 - 0.0
04/06:00pm 33.4 36.5 22.8 53 7.4 NE 11 17 6 9 1006.9 1005.3 0.0
04/05:30pm 33.9 35.9 22.3 50 8.0 ENE 15 24 8 13 1006.6 - 0.0
04/05:00pm 34.2 36.2 21.6 47 8.6 ENE 13 17 7 9 1006.5 - 0.0
04/04:30pm 34.5 36.7 21.9 48 8.7 E 13 20 7 11 1006.6 - 0.0
04/04:00pm 34.8 37.0 23.2 51 8.1 ENE 17 22 9 12 1006.7 - 0.0
04/03:30pm 34.8 36.4 22.8 49 8.3 ENE 19 26 10 14 1006.9 - 0.0
04/03:00pm 34.5 37.2 22.9 51 8.1 NE 13 20 7 11 1007.0 1005.4 0.0
04/02:30pm 34.7 37.7 24.0 53 7.6 ENE 15 22 8 12 1007.4 - 0.0
04/02:00pm 33.6 35.3 22.4 52 7.7 E 17 26 9 14 1007.7 - 0.0
04/01:30pm 33.6 36.7 24.2 58 6.6 ENE 15 20 8 11 1008.1 - 0.0
04/01:00pm 33.4 36.6 24.3 59 6.4 ENE 15 22 8 12 1008.6 - 0.0
04/12:30pm 32.9 35.8 23.8 58 6.4 ENE 15 22 8 12 1009.1 - 0.0
04/12:00pm 32.1 34.9 23.6 60 5.9 NE 15 24 8 13 1009.4 1007.9 0.0
04/11:30am 31.2 34.8 24.3 66 4.9 NE 13 20 7 11 1009.4 - 0.0
04/11:00am 30.6 33.9 24.5 70 4.3 NE 15 22 8 12 1009.9 - 0.0
04/10:30am 30.3 34.5 25.4 75 3.5 NNE 13 24 7 13 1010.2 - 0.0
04/10:00am 28.9 33.1 24.7 78 3.0 NE 11 17 6 9 1010.4 - 0.0
04/09:30am 29.0 32.9 24.8 78 3.0 NE 13 19 7 10 1010.2 - 0.0
04/09:00am 27.7 30.9 24.3 82 2.4 NNE 15 22 8 12 1009.9 1008.3 0.0
04/08:30am 27.3 31.6 24.9 87 1.7 NNE 11 15 6 8 1009.8 - 0.0
04/08:00am 26.5 31.4 25.3 93 0.8 NE 9 13 5 7 1009.3 - 0.0
04/07:30am 25.7 30.6 24.7 94 0.7 NNE 7 11 4 6 1008.9 - 0.0
04/07:00am 25.4 30.2 24.4 94 0.7 NNE 7 9 4 5 1008.8 - 0.0
04/06:30am 25.3 30.0 24.3 94 0.7 NE 7 9 4 5 1008.5 - 0.0
04/06:00am 25.3 29.8 23.9 92 1.0 NNE 7 7 4 4 1008.1 1006.5 0.0
04/05:30am 25.6 29.6 23.8 90 1.2 NNE 9 11 5 6 1007.8 - 0.0
04/05:00am 26.0 30.4 23.5 86 1.7 NE 6 7 3 4 1007.6 - 0.0
04/04:30am 26.3 30.4 23.2 83 2.1 E 7 11 4 6 1007.3 - 0.0
04/04:00am 26.5 29.9 23.4 83 2.1 ENE 11 15 6 8 1007.1 - 0.0
04/03:30am 26.5 30.4 23.6 84 2.0 E 9 13 5 7 1007.2 - 0.0
04/03:00am 26.7 30.6 23.6 83 2.1 ENE 9 13 5 7 1007.3 1005.7 0.0
04/02:30am 26.9 30.2 23.2 80 2.5 ENE 11 15 6 8 1007.6 - 0.0
04/02:00am 27.1 30.3 23.1 79 2.7 ENE 11 15 6 8 1007.7 - 0.0
04/01:30am 27.7 30.9 23.1 76 3.2 ENE 11 17 6 9 1007.9 - 0.0
04/01:00am 27.7 31.9 23.5 78 2.9 E 7 13 4 7 1008.3 - 0.0
04/12:30am 28.0 32.1 24.0 79 2.8 E 9 11 5 6 1008.5 - 0.0
04/12:00am 28.2 32.7 24.0 78 2.9 E 7 11 4 6 1008.7 1007.2 0.0
 
Date/Time
CST
Temp
°C
App
Temp
°C
Dew
Point
Rel
Hum
%
Delta-T
°C
Wind Press
QNH
hPa
Press
MSL
hPa
Rain
since 9 am
mm
Dir
 
Spd
km/h
Gust
km/h
Spd
kts
Gust
kts
03/11:30pm 28.2 33.2 24.8 82 2.4 E 7 9 4 5 1008.5 - 0.0
03/11:00pm 28.5 34.3 24.5 79 2.8 E 2 6 1 3 1008.2 - 0.0
03/10:30pm 28.7 34.0 24.9 80 2.7 ENE 6 9 3 5 1007.9 - 0.0
03/10:00pm 28.7 33.8 24.9 80 2.7 ENE 7 9 4 5 1007.9 - 0.0
03/09:30pm 29.1 33.9 24.4 76 3.3 E 7 11 4 6 1007.7 - 0.0
03/09:00pm 29.5 34.4 24.6 75 3.5 ENE 7 9 4 5 1007.7 1006.1 0.0
03/08:30pm 29.8 34.4 24.2 72 3.9 E 7 7 4 4 1007.5 - 0.0
03/08:00pm 30.0 34.8 24.2 71 4.1 E 6 7 3 4 1007.0 - 0.0
03/07:30pm 30.6 35.1 24.0 68 4.6 ENE 7 7 4 4 1006.5 - 0.0
03/07:00pm 31.1 35.3 23.5 64 5.3 ENE 7 9 4 5 1006.1 - 0.0
03/06:30pm 32.1 35.7 23.1 59 6.2 ENE 9 17 5 9 1005.8 - 0.0
03/06:00pm 32.6 34.3 22.4 55 7.0 ENE 17 24 9 13 1005.4 1003.8 0.0
03/05:30pm 33.0 35.0 23.0 55 6.9 NE 17 20 9 11 1005.2 - 0.0
03/05:00pm 33.3 35.7 23.0 54 7.2 ENE 15 22 8 12 1005.2 - 0.0
03/04:30pm 33.2 34.8 22.9 54 7.2 ENE 19 26 10 14 1005.3 - 0.0
03/04:00pm 33.2 35.0 22.6 53 7.3 NE 17 32 9 17 1005.4 - 0.0
03/03:30pm 33.2 33.7 22.6 53 7.3 NE 24 32 13 17 1005.8 - 0.0
03/03:00pm 33.1 34.2 23.1 55 7.0 ENE 22 33 12 18 1005.9 1004.3 0.0
03/02:30pm 33.2 34.4 23.2 55 7.0 NE 22 33 12 18 1006.3 - 0.0
03/02:00pm 32.4 34.2 23.3 58 6.3 ENE 19 33 10 18 1006.4 - 0.0
03/01:30pm 32.6 34.4 23.5 58 6.4 ENE 20 33 11 18 1006.5 - 0.0
03/01:00pm 32.4 33.0 22.8 57 6.6 E 24 39 13 21 1006.9 - 0.0
03/12:30pm 32.6 34.7 24.1 61 6.0 ENE 20 30 11 16 1007.3 - 0.0
03/12:00pm 31.5 32.9 23.6 63 5.5 ENE 22 32 12 17 1007.6 1006.0 0.0
03/11:30am 30.8 32.4 23.2 64 5.3 ENE 20 28 11 15 1007.9 - 0.0
03/11:00am 30.4 32.0 23.3 66 4.9 NE 20 32 11 17 1008.2 - 0.0
03/10:30am 29.4 31.2 23.6 71 4.0 NE 20 28 11 15 1008.5 - 0.0
03/10:00am 28.8 30.7 23.7 74 3.5 ENE 20 30 11 16 1008.5 - 0.0
03/09:30am 28.8 30.9 24.1 76 3.3 ENE 20 37 11 20 1008.6 - 0.0
03/09:00am 27.6 29.5 23.8 80 2.6 ENE 20 32 11 17 1008.4 1006.9 0.0
03/08:30am 27.2 30.3 24.8 87 1.7 ENE 17 22 9 12 1008.2 - 0.0
03/08:00am 26.1 29.5 24.7 92 1.0 ENE 15 22 8 12 1007.8 - 0.0
03/07:30am 25.3 29.2 24.3 94 0.7 E 11 17 6 9 1007.3 - 0.0
03/07:00am 24.3 28.9 24.1 99 0.1 E 7 11 4 6 1007.0 - 0.0
03/06:30am 24.4 28.9 23.9 97 0.3 E 7 9 4 5 1006.7 - 0.0
03/06:00am 24.7 29.4 24.0 96 0.5 ENE 6 7 3 4 1006.2 1004.6 0.0
03/05:30am 24.7 29.1 23.8 95 0.6 NE 7 9 4 5 1005.7 - 0.0
03/05:00am 25.0 29.5 24.0 94 0.7 NE 7 9 4 5 1005.5 - 0.0
03/04:30am 25.4 29.5 24.0 92 1.0 ENE 9 11 5 6 1005.5 - 0.0
03/04:00am 25.9 29.7 24.1 90 1.2 ENE 11 15 6 8 1005.5 - 0.0
03/03:30am 26.1 30.2 24.0 88 1.5 ENE 9 13 5 7 1005.7 - 0.0
03/03:00am 26.5 31.0 24.0 86 1.7 ENE 7 11 4 6 1005.7 1004.1 0.0
03/02:30am 27.0 30.8 24.1 84 2.0 ENE 11 17 6 9 1005.7 - 0.0
03/02:00am 27.0 31.4 24.5 86 1.7 E 9 13 5 7 1005.8 - 0.0
03/01:30am 27.2 32.1 24.6 86 1.8 E 7 9 4 5 1005.9 - 0.0
03/01:00am 27.2 32.3 24.6 86 1.8 ENE 6 7 3 4 1006.1 - 0.0
03/12:30am 27.3 31.7 24.4 84 2.0 NE 9 13 5 7 1006.3 - 0.0
03/12:00am 27.7 32.1 24.5 83 2.2 NNE 9 11 5 6 1006.7 1005.1 0.0
 
Date/Time
CST
Temp
°C
App
Temp
°C
Dew
Point
Rel
Hum
%
Delta-T
°C
Wind Press
QNH
hPa
Press
MSL
hPa
Rain
since 9 am
mm
Dir
 
Spd
km/h
Gust
km/h
Spd
kts
Gust
kts
02/11:30pm 28.1 31.3 24.3 80 2.7 N 15 24 8 13 1006.8 - 0.0
02/11:00pm 28.9 34.7 24.5 77 3.1 SSE 2 20 1 11 1006.5 - 0.0
02/10:30pm 29.1 34.6 24.0 74 3.6 S 2 6 1 3 1006.3 - 0.0
02/10:00pm 29.5 33.3 23.4 69 4.2 S 9 11 5 6 1005.9 - 0.0
02/09:30pm 29.2 35.1 24.1 74 3.6 CALM 0 0 0 0 1005.6 - 0.0
02/09:00pm 29.4 35.2 24.0 72 3.8 CALM 0 0 0 0 1005.2 1003.6 0.0
02/08:30pm 30.1 34.2 23.0 65 4.9 ESE 6 7 3 4 1004.6 - 0.0
02/08:00pm 30.5 34.0 22.1 61 5.7 ESE 7 9 4 5 1004.2 - 0.0
02/07:30pm 31.0 34.4 22.0 58 6.1 ESE 7 11 4 6 1004.0 - 0.0
02/07:00pm 31.8 34.2 21.6 54 6.9 ESE 11 15 6 8 1003.9 - 0.0
02/06:30pm 32.9 34.3 21.1 50 8.0 SE 15 22 8 12 1003.7 - 0.0
02/06:00pm 33.5 35.9 22.9 53 7.4 SE 15 20 8 11 1003.0 1001.4 0.0
02/05:30pm 33.0 35.1 22.4 53 7.3 ESE 15 20 8 11 1002.9 - 0.0
02/05:00pm 33.7 35.6 22.8 53 7.6 ESE 17 26 9 14 1003.0 - 0.0
02/04:30pm 33.7 34.7 21.8 49 8.2 SE 19 30 10 16 1003.0 - 0.0
02/04:00pm 33.3 35.4 22.4 52 7.5 E 15 30 8 16 1003.3 - 0.0
02/03:30pm 33.9 36.5 22.7 52 7.8 E 13 26 7 14 1003.4 - 0.0
02/03:00pm 34.1 36.2 23.1 52 7.7 SE 17 28 9 15 1003.5 1001.9 0.0
02/02:30pm 34.0 37.2 23.7 55 7.2 SE 13 22 7 12 1004.2 - 0.0
02/02:00pm 33.5 36.5 22.6 53 7.5 SE 11 20 6 11 1004.9 - 0.0
02/01:30pm 33.2 36.2 22.6 53 7.3 ESE 11 20 6 11 1005.5 - 0.0
02/01:00pm 33.4 36.3 23.1 54 7.2 SSE 13 19 7 10 1005.9 - 0.0
02/12:30pm 32.5 36.0 22.9 57 6.7 SW 9 17 5 9 1006.4 - 0.0
02/12:00pm 32.7 36.5 22.8 56 6.9 SSE 7 11 4 6 1007.1 1005.5 0.0
02/11:30am 32.1 35.7 23.1 59 6.2 NE 9 15 5 8 1007.4 - 0.0
02/11:00am 31.8 35.8 22.8 59 6.2 ESE 6 11 3 6 1007.5 - 0.0
02/10:30am 31.2 35.5 23.6 64 5.3 N 7 9 4 5 1007.7 - 0.0
02/10:00am 30.6 35.5 24.7 71 4.2 NW 7 13 4 7 1007.6 - 0.0

Other Formats:

Comma delimited format used in spreadsheet applications
http://www.bom.gov.au/fwo/IDD60801/IDD60801.94225.axf

JavaScript Object Notation format (JSON) in row-major order
http://www.bom.gov.au/fwo/IDD60801/IDD60801.94225.json